Terminal Aerodrome Forecast
Issued by NWS

Home | Current Version | Previous Version | Text Only | Print | Product List | Glossary On
Versions: 1 2 3 4 5 6 7 8 9 10 11 12 13 14 15 16 17
000
FTUS42 TJSJ 311700
TAFJPS
TAF
TJPS 311736Z 3118/0118 17008KT P6SM VCSH SCT025 SCT050
      TEMPO 3119/3120 5SM SHRA SCT025 BKN040
     FM312130 03005KT P6SM FEW025
     FM011430 14007KT P6SM FEW030
      AMD NOT SKED TIL 010300=

USA.gov is the U.S. government's official web portal to all federal, state and local government web resources and services.